sensor_id;sensor_type;location;lat;lon;timestamp;P1;durP1;ratioP1;P2;durP2;ratioP2
6561;SDS011;3314;50.890;4.722;2022-11-28T00:01:11;7.5;;;1.9;;
6561;SDS011;3314;50.890;4.722;2022-11-28T00:03:11;6.9;;;1.7;;
6561;SDS011;3314;50.890;4.722;2022-11-28T00:05:11;9.7;;;1.9;;
6561;SDS011;3314;50.890;4.722;2022-11-28T00:07:11;7.7;;;1.4;;
6561;SDS011;3314;50.890;4.722;2022-11-28T00:09:11;7.2;;;1.5;;
6561;SDS011;3314;50.890;4.722;2022-11-28T00:11:11;7.6;;;1.7;;
6561;SDS011;3314;50.890;4.722;2022-11-28T00:13:11;8.0;;;1.6;;
6561;SDS011;3314;50.890;4.722;2022-11-28T00:15:11;8.3;;;1.7;;
6561;SDS011;3314;50.890;4.722;2022-11-28T00:17:11;6.7;;;1.5;;
6561;SDS011;3314;50.890;4.722;2022-11-28T00:19:11;8.3;;;1.9;;
6561;SDS011;3314;50.890;4.722;2022-11-28T00:21:02;8.2;;;1.8;;
6561;SDS011;3314;50.890;4.722;2022-11-28T00:23:02;8.7;;;2.0;;
6561;SDS011;3314;50.890;4.722;2022-11-28T00:25:01;7.7;;;1.5;;
6561;SDS011;3314;50.890;4.722;2022-11-28T00:27:01;6.4;;;1.2;;
6561;SDS011;3314;50.890;4.722;2022-11-28T00:29:01;8.1;;;1.7;;
6561;SDS011;3314;50.890;4.722;2022-11-28T00:31:01;6.1;;;1.2;;
6561;SDS011;3314;50.890;4.722;2022-11-28T00:33:01;6.8;;;1.7;;
6561;SDS011;3314;50.890;4.722;2022-11-28T00:35:00;8.1;;;1.4;;
6561;SDS011;3314;50.890;4.722;2022-11-28T00:37:00;6.8;;;1.4;;
6561;SDS011;3314;50.890;4.722;2022-11-28T00:39:00;10.1;;;2.4;;
6561;SDS011;3314;50.890;4.722;2022-11-28T00:41:00;7.0;;;2.1;;
6561;SDS011;3314;50.890;4.722;2022-11-28T00:43:00;7.2;;;1.8;;
6561;SDS011;3314;50.890;4.722;2022-11-28T00:45:00;7.7;;;1.4;;
6561;SDS011;3314;50.890;4.722;2022-11-28T00:47:00;6.3;;;1.4;;
6561;SDS011;3314;50.890;4.722;2022-11-28T00:48:59;6.8;;;1.7;;
6561;SDS011;3314;50.890;4.722;2022-11-28T00:51:04;6.7;;;1.6;;
6561;SDS011;3314;50.890;4.722;2022-11-28T00:53:04;7.4;;;1.8;;
6561;SDS011;3314;50.890;4.722;2022-11-28T00:55:04;8.8;;;1.5;;
6561;SDS011;3314;50.890;4.722;2022-11-28T00:57:03;10.1;;;1.9;;
6561;SDS011;3314;50.890;4.722;2022-11-28T00:59:03;7.3;;;1.9;;
6561;SDS011;3314;50.890;4.722;2022-11-28T01:01:06;8.0;;;1.7;;
6561;SDS011;3314;50.890;4.722;2022-11-28T01:02:54;7.7;;;2.1;;
6561;SDS011;3314;50.890;4.722;2022-11-28T01:04:54;7.9;;;1.9;;
6561;SDS011;3314;50.890;4.722;2022-11-28T01:06:54;7.2;;;1.5;;
6561;SDS011;3314;50.890;4.722;2022-11-28T01:08:55;7.0;;;1.5;;
6561;SDS011;3314;50.890;4.722;2022-11-28T01:10:55;7.3;;;1.7;;
6561;SDS011;3314;50.890;4.722;2022-11-28T01:12:55;6.7;;;1.8;;
6561;SDS011;3314;50.890;4.722;2022-11-28T01:14:56;8.3;;;1.4;;
6561;SDS011;3314;50.890;4.722;2022-11-28T01:16:56;6.9;;;1.6;;
6561;SDS011;3314;50.890;4.722;2022-11-28T01:18:56;9.2;;;1.6;;
6561;SDS011;3314;50.890;4.722;2022-11-28T01:20:55;8.3;;;1.6;;
6561;SDS011;3314;50.890;4.722;2022-11-28T01:22:55;7.7;;;1.5;;
6561;SDS011;3314;50.890;4.722;2022-11-28T01:24:55;8.8;;;2.0;;
6561;SDS011;3314;50.890;4.722;2022-11-28T01:26:54;7.6;;;1.7;;
6561;SDS011;3314;50.890;4.722;2022-11-28T01:28:54;8.7;;;1.7;;
6561;SDS011;3314;50.890;4.722;2022-11-28T01:30:54;7.0;;;1.5;;
6561;SDS011;3314;50.890;4.722;2022-11-28T01:32:54;7.2;;;1.7;;
6561;SDS011;3314;50.890;4.722;2022-11-28T01:34:54;8.0;;;1.5;;
6561;SDS011;3314;50.890;4.722;2022-11-28T01:36:56;7.3;;;1.9;;
6561;SDS011;3314;50.890;4.722;2022-11-28T01:38:55;6.4;;;1.4;;
6561;SDS011;3314;50.890;4.722;2022-11-28T01:40:55;6.6;;;1.3;;
6561;SDS011;3314;50.890;4.722;2022-11-28T01:42:55;7.4;;;1.6;;
6561;SDS011;3314;50.890;4.722;2022-11-28T01:45:12;7.6;;;1.8;;
6561;SDS011;3314;50.890;4.722;2022-11-28T01:46:50;9.9;;;2.4;;
6561;SDS011;3314;50.890;4.722;2022-11-28T01:48:49;6.3;;;1.3;;
6561;SDS011;3314;50.890;4.722;2022-11-28T01:50:50;7.7;;;1.7;;
6561;SDS011;3314;50.890;4.722;2022-11-28T01:52:52;7.3;;;1.5;;
6561;SDS011;3314;50.890;4.722;2022-11-28T01:54:54;7.6;;;2.0;;
6561;SDS011;3314;50.890;4.722;2022-11-28T01:56:46;8.4;;;1.4;;
6561;SDS011;3314;50.890;4.722;2022-11-28T01:58:46;7.8;;;1.6;;
6561;SDS011;3314;50.890;4.722;2022-11-28T02:00:47;9.0;;;1.9;;
6561;SDS011;3314;50.890;4.722;2022-11-28T02:02:47;9.6;;;2.5;;
6561;SDS011;3314;50.890;4.722;2022-11-28T02:04:48;7.4;;;1.6;;
6561;SDS011;3314;50.890;4.722;2022-11-28T02:06:48;8.4;;;2.2;;
6561;SDS011;3314;50.890;4.722;2022-11-28T02:08:49;6.6;;;1.5;;
6561;SDS011;3314;50.890;4.722;2022-11-28T02:10:55;7.9;;;1.9;;
6561;SDS011;3314;50.890;4.722;2022-11-28T02:12:54;8.8;;;2.1;;
6561;SDS011;3314;50.890;4.722;2022-11-28T02:14:54;9.2;;;1.5;;
6561;SDS011;3314;50.890;4.722;2022-11-28T02:16:50;7.6;;;1.6;;
6561;SDS011;3314;50.890;4.722;2022-11-28T02:18:44;7.4;;;2.0;;
6561;SDS011;3314;50.890;4.722;2022-11-28T02:20:49;8.2;;;1.7;;
6561;SDS011;3314;50.890;4.722;2022-11-28T02:22:40;6.6;;;1.5;;
6561;SDS011;3314;50.890;4.722;2022-11-28T02:24:50;8.1;;;1.9;;
6561;SDS011;3314;50.890;4.722;2022-11-28T02:27:00;6.5;;;1.6;;
6561;SDS011;3314;50.890;4.722;2022-11-28T02:28:45;8.0;;;1.7;;
6561;SDS011;3314;50.890;4.722;2022-11-28T02:30:40;9.8;;;2.3;;
6561;SDS011;3314;50.890;4.722;2022-11-28T02:32:51;6.7;;;1.7;;
6561;SDS011;3314;50.890;4.722;2022-11-28T02:34:43;6.3;;;1.5;;
6561;SDS011;3314;50.890;4.722;2022-11-28T02:36:45;7.3;;;1.7;;
6561;SDS011;3314;50.890;4.722;2022-11-28T02:38:50;7.4;;;1.6;;
6561;SDS011;3314;50.890;4.722;2022-11-28T02:40:39;10.0;;;2.1;;
6561;SDS011;3314;50.890;4.722;2022-11-28T02:42:44;7.0;;;1.8;;
6561;SDS011;3314;50.890;4.722;2022-11-28T02:44:37;9.2;;;2.1;;
6561;SDS011;3314;50.890;4.722;2022-11-28T02:46:41;7.0;;;2.1;;
6561;SDS011;3314;50.890;4.722;2022-11-28T02:48:44;8.9;;;1.9;;
6561;SDS011;3314;50.890;4.722;2022-11-28T02:50:46;6.4;;;1.7;;
6561;SDS011;3314;50.890;4.722;2022-11-28T02:52:36;9.5;;;1.8;;
6561;SDS011;3314;50.890;4.722;2022-11-28T02:54:37;9.9;;;2.0;;
6561;SDS011;3314;50.890;4.722;2022-11-28T02:56:37;6.5;;;1.4;;
6561;SDS011;3314;50.890;4.722;2022-11-28T02:58:37;7.7;;;2.3;;
6561;SDS011;3314;50.890;4.722;2022-11-28T03:00:39;6.9;;;1.9;;
6561;SDS011;3314;50.890;4.722;2022-11-28T03:02:39;7.5;;;1.8;;
6561;SDS011;3314;50.890;4.722;2022-11-28T03:04:40;7.2;;;1.8;;
6561;SDS011;3314;50.890;4.722;2022-11-28T03:06:34;7.3;;;1.9;;
6561;SDS011;3314;50.890;4.722;2022-11-28T03:08:41;9.3;;;1.9;;
6561;SDS011;3314;50.890;4.722;2022-11-28T03:10:35;9.0;;;2.1;;
6561;SDS011;3314;50.890;4.722;2022-11-28T03:12:42;7.1;;;1.9;;
6561;SDS011;3314;50.890;4.722;2022-11-28T03:14:37;7.9;;;2.0;;
6561;SDS011;3314;50.890;4.722;2022-11-28T03:16:33;6.9;;;1.8;;
6561;SDS011;3314;50.890;4.722;2022-11-28T03:18:35;8.3;;;2.1;;
6561;SDS011;3314;50.890;4.722;2022-11-28T03:20:38;8.9;;;1.6;;
6561;SDS011;3314;50.890;4.722;2022-11-28T03:22:31;7.0;;;1.9;;
6561;SDS011;3314;50.890;4.722;2022-11-28T03:24:32;9.6;;;2.1;;
6561;SDS011;3314;50.890;4.722;2022-11-28T03:26:34;6.6;;;1.7;;
6561;SDS011;3314;50.890;4.722;2022-11-28T03:28:37;7.4;;;2.3;;
6561;SDS011;3314;50.890;4.722;2022-11-28T03:30:41;6.3;;;1.7;;
6561;SDS011;3314;50.890;4.722;2022-11-28T03:32:35;6.7;;;1.5;;
6561;SDS011;3314;50.890;4.722;2022-11-28T03:34:40;11.8;;;1.9;;
6561;SDS011;3314;50.890;4.722;2022-11-28T03:36:30;6.4;;;1.4;;
6561;SDS011;3314;50.890;4.722;2022-11-28T03:38:32;7.1;;;2.2;;
6561;SDS011;3314;50.890;4.722;2022-11-28T03:40:35;6.5;;;1.7;;
6561;SDS011;3314;50.890;4.722;2022-11-28T03:42:36;7.7;;;1.9;;
6561;SDS011;3314;50.890;4.722;2022-11-28T03:44:26;10.5;;;2.7;;
6561;SDS011;3314;50.890;4.722;2022-11-28T03:46:28;7.8;;;1.9;;
6561;SDS011;3314;50.890;4.722;2022-11-28T03:48:30;7.0;;;1.8;;
6561;SDS011;3314;50.890;4.722;2022-11-28T03:50:32;5.6;;;1.4;;
6561;SDS011;3314;50.890;4.722;2022-11-28T03:52:34;7.8;;;1.6;;
6561;SDS011;3314;50.890;4.722;2022-11-28T03:54:26;6.0;;;1.4;;
6561;SDS011;3314;50.890;4.722;2022-11-28T03:56:29;7.7;;;2.1;;
6561;SDS011;3314;50.890;4.722;2022-11-28T03:58:32;7.1;;;1.8;;
6561;SDS011;3314;50.890;4.722;2022-11-28T04:00:24;7.3;;;1.7;;
6561;SDS011;3314;50.890;4.722;2022-11-28T04:02:26;7.0;;;1.5;;
6561;SDS011;3314;50.890;4.722;2022-11-28T04:04:29;6.8;;;1.7;;
6561;SDS011;3314;50.890;4.722;2022-11-28T04:06:31;8.5;;;1.9;;
6561;SDS011;3314;50.890;4.722;2022-11-28T04:08:23;7.1;;;1.5;;
6561;SDS011;3314;50.890;4.722;2022-11-28T04:10:26;7.4;;;1.6;;
6561;SDS011;3314;50.890;4.722;2022-11-28T04:12:30;7.4;;;1.7;;
6561;SDS011;3314;50.890;4.722;2022-11-28T04:14:22;7.8;;;1.8;;
6561;SDS011;3314;50.890;4.722;2022-11-28T04:16:26;6.9;;;1.5;;
6561;SDS011;3314;50.890;4.722;2022-11-28T04:18:20;7.2;;;1.6;;
6561;SDS011;3314;50.890;4.722;2022-11-28T04:20:24;7.1;;;2.2;;
6561;SDS011;3314;50.890;4.722;2022-11-28T04:22:26;7.8;;;2.1;;
6561;SDS011;3314;50.890;4.722;2022-11-28T04:24:28;8.1;;;1.7;;
6561;SDS011;3314;50.890;4.722;2022-11-28T04:26:19;6.3;;;1.7;;
6561;SDS011;3314;50.890;4.722;2022-11-28T04:28:21;9.0;;;1.6;;
6561;SDS011;3314;50.890;4.722;2022-11-28T04:30:26;7.1;;;2.0;;
6561;SDS011;3314;50.890;4.722;2022-11-28T04:32:32;7.1;;;1.8;;
6561;SDS011;3314;50.890;4.722;2022-11-28T04:34:22;6.9;;;1.9;;
6561;SDS011;3314;50.890;4.722;2022-11-28T04:36:23;8.5;;;2.0;;
6561;SDS011;3314;50.890;4.722;2022-11-28T04:38:24;6.5;;;1.6;;
6561;SDS011;3314;50.890;4.722;2022-11-28T04:40:26;7.2;;;2.0;;
6561;SDS011;3314;50.890;4.722;2022-11-28T04:42:17;7.6;;;2.0;;
6561;SDS011;3314;50.890;4.722;2022-11-28T04:44:20;7.9;;;1.6;;
6561;SDS011;3314;50.890;4.722;2022-11-28T04:46:22;8.4;;;2.7;;
6561;SDS011;3314;50.890;4.722;2022-11-28T04:48:22;7.2;;;2.1;;
6561;SDS011;3314;50.890;4.722;2022-11-28T04:50:22;8.4;;;2.5;;
6561;SDS011;3314;50.890;4.722;2022-11-28T04:52:25;7.7;;;1.8;;
6561;SDS011;3314;50.890;4.722;2022-11-28T04:54:16;7.0;;;2.0;;
6561;SDS011;3314;50.890;4.722;2022-11-28T04:56:18;7.8;;;2.1;;
6561;SDS011;3314;50.890;4.722;2022-11-28T04:58:21;9.9;;;2.0;;
6561;SDS011;3314;50.890;4.722;2022-11-28T05:00:18;7.1;;;2.1;;
6561;SDS011;3314;50.890;4.722;2022-11-28T05:02:18;6.4;;;1.8;;
6561;SDS011;3314;50.890;4.722;2022-11-28T05:04:19;7.2;;;1.6;;
6561;SDS011;3314;50.890;4.722;2022-11-28T05:06:22;8.7;;;2.2;;
6561;SDS011;3314;50.890;4.722;2022-11-28T05:08:11;7.0;;;1.7;;
6561;SDS011;3314;50.890;4.722;2022-11-28T05:10:11;7.5;;;2.0;;
6561;SDS011;3314;50.890;4.722;2022-11-28T05:12:11;7.9;;;1.9;;
6561;SDS011;3314;50.890;4.722;2022-11-28T05:14:11;6.5;;;1.7;;
6561;SDS011;3314;50.890;4.722;2022-11-28T05:16:11;7.3;;;2.1;;
6561;SDS011;3314;50.890;4.722;2022-11-28T05:18:10;6.3;;;1.7;;
6561;SDS011;3314;50.890;4.722;2022-11-28T05:20:11;7.1;;;2.0;;
6561;SDS011;3314;50.890;4.722;2022-11-28T05:22:11;7.3;;;1.8;;
6561;SDS011;3314;50.890;4.722;2022-11-28T05:24:11;7.2;;;2.1;;
6561;SDS011;3314;50.890;4.722;2022-11-28T05:26:11;7.1;;;1.8;;
6561;SDS011;3314;50.890;4.722;2022-11-28T05:28:11;6.3;;;1.6;;
6561;SDS011;3314;50.890;4.722;2022-11-28T05:30:11;8.0;;;2.0;;
6561;SDS011;3314;50.890;4.722;2022-11-28T05:32:11;8.1;;;2.3;;
6561;SDS011;3314;50.890;4.722;2022-11-28T05:34:11;7.4;;;1.7;;
6561;SDS011;3314;50.890;4.722;2022-11-28T05:36:11;8.7;;;2.3;;
6561;SDS011;3314;50.890;4.722;2022-11-28T05:38:11;8.7;;;2.2;;
6561;SDS011;3314;50.890;4.722;2022-11-28T05:40:11;8.0;;;1.8;;
6561;SDS011;3314;50.890;4.722;2022-11-28T05:42:10;7.5;;;2.1;;
6561;SDS011;3314;50.890;4.722;2022-11-28T05:44:10;8.0;;;2.1;;
6561;SDS011;3314;50.890;4.722;2022-11-28T05:46:10;7.7;;;2.0;;
6561;SDS011;3314;50.890;4.722;2022-11-28T05:48:09;6.5;;;1.7;;
6561;SDS011;3314;50.890;4.722;2022-11-28T05:50:09;7.0;;;1.9;;
6561;SDS011;3314;50.890;4.722;2022-11-28T05:52:09;7.2;;;2.1;;
6561;SDS011;3314;50.890;4.722;2022-11-28T05:54:09;7.5;;;1.9;;
6561;SDS011;3314;50.890;4.722;2022-11-28T05:56:09;6.6;;;1.8;;
6561;SDS011;3314;50.890;4.722;2022-11-28T05:58:09;8.6;;;2.3;;
6561;SDS011;3314;50.890;4.722;2022-11-28T06:00:09;8.9;;;1.8;;
6561;SDS011;3314;50.890;4.722;2022-11-28T06:02:09;7.8;;;2.3;;
6561;SDS011;3314;50.890;4.722;2022-11-28T06:04:09;7.8;;;2.4;;
6561;SDS011;3314;50.890;4.722;2022-11-28T06:06:12;8.4;;;2.3;;
6561;SDS011;3314;50.890;4.722;2022-11-28T06:08:00;7.6;;;2.2;;
6561;SDS011;3314;50.890;4.722;2022-11-28T06:10:00;10.3;;;2.4;;
6561;SDS011;3314;50.890;4.722;2022-11-28T06:12:00;8.1;;;2.1;;
6561;SDS011;3314;50.890;4.722;2022-11-28T06:14:00;9.1;;;2.5;;
6561;SDS011;3314;50.890;4.722;2022-11-28T06:15:59;7.5;;;2.4;;
6561;SDS011;3314;50.890;4.722;2022-11-28T06:17:59;7.8;;;2.3;;
6561;SDS011;3314;50.890;4.722;2022-11-28T06:19:59;7.7;;;2.1;;
6561;SDS011;3314;50.890;4.722;2022-11-28T06:21:58;9.1;;;2.8;;
6561;SDS011;3314;50.890;4.722;2022-11-28T06:23:58;7.7;;;2.4;;
6561;SDS011;3314;50.890;4.722;2022-11-28T06:26:03;8.2;;;2.4;;
6561;SDS011;3314;50.890;4.722;2022-11-28T06:28:03;8.5;;;2.5;;
6561;SDS011;3314;50.890;4.722;2022-11-28T06:30:03;8.4;;;2.5;;
6561;SDS011;3314;50.890;4.722;2022-11-28T06:32:03;8.8;;;2.3;;
6561;SDS011;3314;50.890;4.722;2022-11-28T06:34:02;8.9;;;2.4;;
6561;SDS011;3314;50.890;4.722;2022-11-28T06:36:02;9.7;;;2.8;;
6561;SDS011;3314;50.890;4.722;2022-11-28T06:38:03;10.8;;;2.4;;
6561;SDS011;3314;50.890;4.722;2022-11-28T06:40:03;8.2;;;2.5;;
6561;SDS011;3314;50.890;4.722;2022-11-28T06:42:02;8.5;;;3.1;;
6561;SDS011;3314;50.890;4.722;2022-11-28T06:44:02;8.5;;;2.5;;
6561;SDS011;3314;50.890;4.722;2022-11-28T06:46:02;7.7;;;2.5;;
6561;SDS011;3314;50.890;4.722;2022-11-28T06:48:02;8.7;;;2.8;;
6561;SDS011;3314;50.890;4.722;2022-11-28T06:50:02;8.4;;;3.2;;
6561;SDS011;3314;50.890;4.722;2022-11-28T06:52:02;11.0;;;3.6;;
6561;SDS011;3314;50.890;4.722;2022-11-28T06:54:01;8.2;;;3.1;;
6561;SDS011;3314;50.890;4.722;2022-11-28T06:56:05;8.3;;;2.9;;
6561;SDS011;3314;50.890;4.722;2022-11-28T06:57:53;7.7;;;2.3;;
6561;SDS011;3314;50.890;4.722;2022-11-28T06:59:52;7.9;;;2.9;;
6561;SDS011;3314;50.890;4.722;2022-11-28T07:01:52;9.4;;;2.9;;
6561;SDS011;3314;50.890;4.722;2022-11-28T07:03:54;7.8;;;2.4;;
6561;SDS011;3314;50.890;4.722;2022-11-28T07:05:53;8.5;;;3.0;;
6561;SDS011;3314;50.890;4.722;2022-11-28T07:07:53;8.4;;;3.1;;
6561;SDS011;3314;50.890;4.722;2022-11-28T07:09:53;9.0;;;3.1;;
6561;SDS011;3314;50.890;4.722;2022-11-28T07:11:53;8.9;;;3.2;;
6561;SDS011;3314;50.890;4.722;2022-11-28T07:13:53;8.0;;;3.2;;
6561;SDS011;3314;50.890;4.722;2022-11-28T07:15:52;9.6;;;4.0;;
6561;SDS011;3314;50.890;4.722;2022-11-28T07:17:52;9.5;;;3.9;;
6561;SDS011;3314;50.890;4.722;2022-11-28T07:19:52;10.6;;;3.5;;
6561;SDS011;3314;50.890;4.722;2022-11-28T07:21:52;11.3;;;3.9;;
6561;SDS011;3314;50.890;4.722;2022-11-28T07:23:51;9.4;;;3.3;;
6561;SDS011;3314;50.890;4.722;2022-11-28T07:25:56;9.3;;;3.4;;
6561;SDS011;3314;50.890;4.722;2022-11-28T07:27:56;8.8;;;3.4;;
6561;SDS011;3314;50.890;4.722;2022-11-28T07:29:55;10.7;;;3.7;;
6561;SDS011;3314;50.890;4.722;2022-11-28T07:31:55;9.4;;;3.7;;
6561;SDS011;3314;50.890;4.722;2022-11-28T07:33:55;10.4;;;4.0;;
6561;SDS011;3314;50.890;4.722;2022-11-28T07:35:57;9.4;;;3.6;;
6561;SDS011;3314;50.890;4.722;2022-11-28T07:37:45;9.3;;;3.4;;
6561;SDS011;3314;50.890;4.722;2022-11-28T07:39:45;11.8;;;3.3;;
6561;SDS011;3314;50.890;4.722;2022-11-28T07:41:44;10.5;;;4.2;;
6561;SDS011;3314;50.890;4.722;2022-11-28T07:43:45;9.2;;;3.7;;
6561;SDS011;3314;50.890;4.722;2022-11-28T07:45:45;9.3;;;3.4;;
6561;SDS011;3314;50.890;4.722;2022-11-28T07:47:44;9.5;;;3.3;;
6561;SDS011;3314;50.890;4.722;2022-11-28T07:49:44;7.8;;;3.0;;
6561;SDS011;3314;50.890;4.722;2022-11-28T07:51:43;8.3;;;3.4;;
6561;SDS011;3314;50.890;4.722;2022-11-28T07:53:43;9.8;;;3.6;;
6561;SDS011;3314;50.890;4.722;2022-11-28T07:55:43;9.7;;;3.2;;
6561;SDS011;3314;50.890;4.722;2022-11-28T07:57:43;10.2;;;3.2;;
6561;SDS011;3314;50.890;4.722;2022-11-28T07:59:43;8.4;;;2.9;;
6561;SDS011;3314;50.890;4.722;2022-11-28T08:01:42;9.3;;;3.6;;
6561;SDS011;3314;50.890;4.722;2022-11-28T08:03:44;9.5;;;3.2;;
6561;SDS011;3314;50.890;4.722;2022-11-28T08:05:48;9.4;;;3.1;;
6561;SDS011;3314;50.890;4.722;2022-11-28T08:07:48;11.6;;;3.7;;
6561;SDS011;3314;50.890;4.722;2022-11-28T08:09:48;13.2;;;4.2;;
6561;SDS011;3314;50.890;4.722;2022-11-28T08:11:48;15.8;;;4.0;;
6561;SDS011;3314;50.890;4.722;2022-11-28T08:13:48;14.4;;;3.5;;
6561;SDS011;3314;50.890;4.722;2022-11-28T08:15:48;9.6;;;2.9;;
6561;SDS011;3314;50.890;4.722;2022-11-28T08:17:47;9.8;;;3.4;;
6561;SDS011;3314;50.890;4.722;2022-11-28T08:19:47;9.4;;;2.8;;
6561;SDS011;3314;50.890;4.722;2022-11-28T08:21:47;9.1;;;3.1;;
6561;SDS011;3314;50.890;4.722;2022-11-28T08:23:46;9.9;;;2.8;;
6561;SDS011;3314;50.890;4.722;2022-11-28T08:25:46;9.1;;;2.5;;
6561;SDS011;3314;50.890;4.722;2022-11-28T08:27:46;10.6;;;4.0;;
6561;SDS011;3314;50.890;4.722;2022-11-28T08:29:45;8.7;;;3.1;;
6561;SDS011;3314;50.890;4.722;2022-11-28T08:31:45;12.9;;;3.3;;
6561;SDS011;3314;50.890;4.722;2022-11-28T08:33:45;8.0;;;2.7;;
6561;SDS011;3314;50.890;4.722;2022-11-28T08:35:45;9.1;;;3.0;;
6561;SDS011;3314;50.890;4.722;2022-11-28T08:37:44;8.7;;;3.0;;
6561;SDS011;3314;50.890;4.722;2022-11-28T08:39:44;12.3;;;3.0;;
6561;SDS011;3314;50.890;4.722;2022-11-28T08:41:44;11.1;;;3.3;;
6561;SDS011;3314;50.890;4.722;2022-11-28T08:43:44;9.1;;;3.3;;
6561;SDS011;3314;50.890;4.722;2022-11-28T08:45:34;8.9;;;3.1;;
6561;SDS011;3314;50.890;4.722;2022-11-28T08:47:34;8.8;;;2.9;;
6561;SDS011;3314;50.890;4.722;2022-11-28T08:49:35;9.6;;;3.6;;
6561;SDS011;3314;50.890;4.722;2022-11-28T08:51:34;11.6;;;3.0;;
6561;SDS011;3314;50.890;4.722;2022-11-28T08:53:34;8.2;;;3.1;;
6561;SDS011;3314;50.890;4.722;2022-11-28T08:55:34;12.0;;;3.4;;
6561;SDS011;3314;50.890;4.722;2022-11-28T08:57:34;7.9;;;2.6;;
6561;SDS011;3314;50.890;4.722;2022-11-28T08:59:33;9.3;;;3.5;;
6561;SDS011;3314;50.890;4.722;2022-11-28T09:01:33;7.8;;;3.0;;
6561;SDS011;3314;50.890;4.722;2022-11-28T09:03:33;11.3;;;3.8;;
6561;SDS011;3314;50.890;4.722;2022-11-28T09:05:33;11.5;;;3.4;;
6561;SDS011;3314;50.890;4.722;2022-11-28T09:07:33;8.7;;;3.0;;
6561;SDS011;3314;50.890;4.722;2022-11-28T09:09:32;8.5;;;2.9;;
6561;SDS011;3314;50.890;4.722;2022-11-28T09:11:32;11.6;;;3.3;;
6561;SDS011;3314;50.890;4.722;2022-11-28T09:13:31;8.4;;;2.9;;
6561;SDS011;3314;50.890;4.722;2022-11-28T09:15:31;9.1;;;3.0;;
6561;SDS011;3314;50.890;4.722;2022-11-28T09:17:31;9.9;;;3.3;;
6561;SDS011;3314;50.890;4.722;2022-11-28T09:19:31;8.7;;;3.3;;
6561;SDS011;3314;50.890;4.722;2022-11-28T09:21:30;8.4;;;3.1;;
6561;SDS011;3314;50.890;4.722;2022-11-28T09:23:30;8.7;;;3.2;;
6561;SDS011;3314;50.890;4.722;2022-11-28T09:25:29;8.9;;;3.5;;
6561;SDS011;3314;50.890;4.722;2022-11-28T09:27:29;11.2;;;3.4;;
6561;SDS011;3314;50.890;4.722;2022-11-28T09:29:29;9.5;;;3.6;;
6561;SDS011;3314;50.890;4.722;2022-11-28T09:31:28;10.0;;;3.8;;
6561;SDS011;3314;50.890;4.722;2022-11-28T09:33:28;12.6;;;3.3;;
6561;SDS011;3314;50.890;4.722;2022-11-28T09:35:28;10.3;;;3.6;;
6561;SDS011;3314;50.890;4.722;2022-11-28T09:37:28;13.6;;;3.6;;
6561;SDS011;3314;50.890;4.722;2022-11-28T09:39:28;10.0;;;3.2;;
6561;SDS011;3314;50.890;4.722;2022-11-28T09:41:31;12.0;;;4.3;;
6561;SDS011;3314;50.890;4.722;2022-11-28T09:43:27;10.6;;;3.5;;
6561;SDS011;3314;50.890;4.722;2022-11-28T09:45:28;11.6;;;3.6;;
6561;SDS011;3314;50.890;4.722;2022-11-28T09:47:28;11.6;;;3.6;;
6561;SDS011;3314;50.890;4.722;2022-11-28T09:49:29;10.7;;;4.0;;
6561;SDS011;3314;50.890;4.722;2022-11-28T09:51:32;8.3;;;3.1;;
6561;SDS011;3314;50.890;4.722;2022-11-28T09:53:22;11.1;;;4.1;;
6561;SDS011;3314;50.890;4.722;2022-11-28T09:55:26;11.7;;;3.7;;
6561;SDS011;3314;50.890;4.722;2022-11-28T09:57:30;13.0;;;4.0;;
6561;SDS011;3314;50.890;4.722;2022-11-28T09:59:30;12.8;;;4.2;;
6561;SDS011;3314;50.890;4.722;2022-11-28T10:01:31;10.3;;;3.5;;
6561;SDS011;3314;50.890;4.722;2022-11-28T10:03:27;11.9;;;4.0;;
6561;SDS011;3314;50.890;4.722;2022-11-28T10:05:22;14.2;;;3.9;;
6561;SDS011;3314;50.890;4.722;2022-11-28T10:07:25;12.7;;;4.2;;
6561;SDS011;3314;50.890;4.722;2022-11-28T10:09:30;11.7;;;4.0;;
6561;SDS011;3314;50.890;4.722;2022-11-28T10:11:23;10.8;;;3.7;;
6561;SDS011;3314;50.890;4.722;2022-11-28T10:13:26;10.5;;;3.7;;
6561;SDS011;3314;50.890;4.722;2022-11-28T10:15:20;9.9;;;3.2;;
6561;SDS011;3314;50.890;4.722;2022-11-28T10:17:26;10.9;;;4.0;;
6561;SDS011;3314;50.890;4.722;2022-11-28T10:19:18;14.5;;;4.0;;
6561;SDS011;3314;50.890;4.722;2022-11-28T10:21:21;11.4;;;4.3;;
6561;SDS011;3314;50.890;4.722;2022-11-28T10:23:24;10.9;;;3.6;;
6561;SDS011;3314;50.890;4.722;2022-11-28T10:25:27;11.0;;;3.8;;
6561;SDS011;3314;50.890;4.722;2022-11-28T10:27:16;13.7;;;5.0;;
6561;SDS011;3314;50.890;4.722;2022-11-28T10:29:19;21.1;;;4.9;;
6561;SDS011;3314;50.890;4.722;2022-11-28T10:31:24;11.6;;;3.9;;
6561;SDS011;3314;50.890;4.722;2022-11-28T10:33:17;12.5;;;4.3;;
6561;SDS011;3314;50.890;4.722;2022-11-28T10:35:20;13.1;;;4.4;;
6561;SDS011;3314;50.890;4.722;2022-11-28T10:37:23;11.4;;;4.1;;
6561;SDS011;3314;50.890;4.722;2022-11-28T10:39:24;13.4;;;4.9;;
6561;SDS011;3314;50.890;4.722;2022-11-28T10:41:25;15.9;;;4.6;;
6561;SDS011;3314;50.890;4.722;2022-11-28T10:43:18;14.2;;;4.3;;
6561;SDS011;3314;50.890;4.722;2022-11-28T10:45:23;11.9;;;4.3;;
6561;SDS011;3314;50.890;4.722;2022-11-28T10:47:15;14.5;;;3.9;;
6561;SDS011;3314;50.890;4.722;2022-11-28T10:49:21;10.8;;;4.1;;
6561;SDS011;3314;50.890;4.722;2022-11-28T10:51:17;13.2;;;4.8;;
6561;SDS011;3314;50.890;4.722;2022-11-28T10:53:24;12.8;;;4.7;;
6561;SDS011;3314;50.890;4.722;2022-11-28T10:55:21;14.5;;;4.8;;
6561;SDS011;3314;50.890;4.722;2022-11-28T10:57:13;12.7;;;4.0;;
6561;SDS011;3314;50.890;4.722;2022-11-28T10:59:16;15.4;;;4.4;;
6561;SDS011;3314;50.890;4.722;2022-11-28T11:01:19;18.0;;;4.3;;
6561;SDS011;3314;50.890;4.722;2022-11-28T11:03:19;15.2;;;4.3;;
6561;SDS011;3314;50.890;4.722;2022-11-28T11:05:12;13.1;;;4.4;;
6561;SDS011;3314;50.890;4.722;2022-11-28T11:07:13;14.9;;;4.6;;
6561;SDS011;3314;50.890;4.722;2022-11-28T11:09:13;14.8;;;3.7;;
6561;SDS011;3314;50.890;4.722;2022-11-28T11:11:17;12.9;;;4.0;;
6561;SDS011;3314;50.890;4.722;2022-11-28T11:13:10;13.7;;;4.5;;
6561;SDS011;3314;50.890;4.722;2022-11-28T11:15:16;17.9;;;4.8;;
6561;SDS011;3314;50.890;4.722;2022-11-28T11:17:24;12.5;;;3.9;;
6561;SDS011;3314;50.890;4.722;2022-11-28T11:19:21;13.4;;;4.6;;
6561;SDS011;3314;50.890;4.722;2022-11-28T11:21:14;19.7;;;3.9;;
6561;SDS011;3314;50.890;4.722;2022-11-28T11:23:15;14.1;;;4.7;;
6561;SDS011;3314;50.890;4.722;2022-11-28T11:25:16;17.6;;;4.9;;
6561;SDS011;3314;50.890;4.722;2022-11-28T11:27:16;14.1;;;4.5;;
6561;SDS011;3314;50.890;4.722;2022-11-28T11:29:19;11.1;;;4.1;;
6561;SDS011;3314;50.890;4.722;2022-11-28T11:31:14;14.2;;;4.5;;
6561;SDS011;3314;50.890;4.722;2022-11-28T11:33:14;12.0;;;3.4;;
6561;SDS011;3314;50.890;4.722;2022-11-28T11:35:16;14.6;;;4.2;;
6561;SDS011;3314;50.890;4.722;2022-11-28T11:37:29;13.6;;;4.0;;
6561;SDS011;3314;50.890;4.722;2022-11-28T11:39:10;12.7;;;4.1;;
6561;SDS011;3314;50.890;4.722;2022-11-28T11:41:18;14.6;;;4.3;;
6561;SDS011;3314;50.890;4.722;2022-11-28T11:43:19;11.6;;;4.2;;
6561;SDS011;3314;50.890;4.722;2022-11-28T11:45:23;13.3;;;4.1;;
6561;SDS011;3314;50.890;4.722;2022-11-28T11:47:11;13.9;;;4.1;;
6561;SDS011;3314;50.890;4.722;2022-11-28T11:49:16;13.1;;;4.3;;
6561;SDS011;3314;50.890;4.722;2022-11-28T11:51:03;15.0;;;5.1;;
6561;SDS011;3314;50.890;4.722;2022-11-28T11:53:04;11.9;;;4.2;;
6561;SDS011;3314;50.890;4.722;2022-11-28T11:55:09;13.6;;;4.9;;
6561;SDS011;3314;50.890;4.722;2022-11-28T11:57:10;12.8;;;3.4;;
6561;SDS011;3314;50.890;4.722;2022-11-28T11:59:12;13.9;;;4.4;;
6561;SDS011;3314;50.890;4.722;2022-11-28T12:01:02;14.8;;;5.1;;
6561;SDS011;3314;50.890;4.722;2022-11-28T12:03:03;16.7;;;5.0;;
6561;SDS011;3314;50.890;4.722;2022-11-28T12:05:11;16.0;;;4.8;;
6561;SDS011;3314;50.890;4.722;2022-11-28T12:07:02;18.3;;;5.1;;
6561;SDS011;3314;50.890;4.722;2022-11-28T12:09:07;16.4;;;4.6;;
6561;SDS011;3314;50.890;4.722;2022-11-28T12:11:04;15.5;;;4.5;;
6561;SDS011;3314;50.890;4.722;2022-11-28T12:13:07;14.2;;;5.0;;
6561;SDS011;3314;50.890;4.722;2022-11-28T12:14:59;17.0;;;4.9;;
6561;SDS011;3314;50.890;4.722;2022-11-28T12:17:03;15.0;;;4.1;;
6561;SDS011;3314;50.890;4.722;2022-11-28T12:19:08;13.2;;;3.5;;
6561;SDS011;3314;50.890;4.722;2022-11-28T12:21:03;22.4;;;5.6;;
6561;SDS011;3314;50.890;4.722;2022-11-28T12:23:08;18.3;;;4.5;;
6561;SDS011;3314;50.890;4.722;2022-11-28T12:25:01;16.7;;;5.1;;
6561;SDS011;3314;50.890;4.722;2022-11-28T12:27:04;14.0;;;3.5;;
6561;SDS011;3314;50.890;4.722;2022-11-28T12:29:10;15.4;;;4.6;;
6561;SDS011;3314;50.890;4.722;2022-11-28T12:31:01;12.7;;;4.3;;
6561;SDS011;3314;50.890;4.722;2022-11-28T12:33:10;15.5;;;4.6;;
6561;SDS011;3314;50.890;4.722;2022-11-28T12:35:03;20.0;;;4.5;;
6561;SDS011;3314;50.890;4.722;2022-11-28T12:37:08;20.5;;;4.7;;
6561;SDS011;3314;50.890;4.722;2022-11-28T12:39:04;21.0;;;4.6;;
6561;SDS011;3314;50.890;4.722;2022-11-28T12:41:02;12.8;;;3.8;;
6561;SDS011;3314;50.890;4.722;2022-11-28T12:43:09;15.4;;;4.9;;